This is the latest recevied weather packets stored in our database for station/object WX4SGA. If no packets are shown the sender has not sent any weather packets the latest 10 day(s).
| Time | Temp. | Humidity | Pressure | Rain* | Wind** | Luminosity | Snow |
|---|---|---|---|---|---|---|---|
| 1777663400 | 21.67° C | 62% | 1012.9 hPa | 0 mm | - | 454 W/m² | - |
| 1777663097 | 20.56° C | 63% | 1012.9 hPa | 0 mm | - | 678 W/m² | - |
| 1777662794 | 20.56° C | 65% | 1012.9 hPa | 0 mm | - | 468 W/m² | - |
| 1777662491 | 21.11° C | 63% | 1012.9 hPa | 0 mm | - | 173 W/m² | - |
| 1777662187 | 21.67° C | 63% | 1012.9 hPa | 0 mm | - | 256 W/m² | - |
| 1777661882 | 21.67° C | 63% | 1012.9 hPa | 0 mm | - | 248 W/m² | - |
| 1777661579 | 22.22° C | 61% | 1012.9 hPa | 0 mm | - | 162 W/m² | - |
| 1777661274 | 22.22° C | 59% | 1012.5 hPa | 0 mm | - | 210 W/m² | - |
| 1777660970 | 22.78° C | 57% | 1012.5 hPa | 0 mm | - | 358 W/m² | - |
| 1777660666 | 22.22° C | 59% | 1012.5 hPa | 0 mm | - | 492 W/m² | - |
| 1777660364 | 22.22° C | 58% | 1012.5 hPa | 0 mm | - | 501 W/m² | - |
| 1777660059 | 22.22° C | 58% | 1012.5 hPa | 0 mm | - | 531 W/m² | - |
| 1777659757 | 22.22° C | 57% | 1012.5 hPa | 0 mm | - | 527 W/m² | - |
| 1777659454 | 22.78° C | 57% | 1012.5 hPa | 0 mm | - | 611 W/m² | - |
| 1777659151 | 22.22° C | 58% | 1012.5 hPa | 0 mm | - | 602 W/m² | - |
| 1777658849 | 21.67° C | 58% | 1012.5 hPa | 0 mm | - | 476 W/m² | - |
| 1777658544 | 21.67° C | 59% | 1012.5 hPa | 0 mm | - | 871 W/m² | - |
| 1777658241 | 21.67° C | 60% | 1012.9 hPa | 0 mm | - | 662 W/m² | - |
| 1777657938 | 21.67° C | 60% | 1012.9 hPa | 0 mm | - | 161 W/m² | - |
| 1777657635 | 22.22° C | 59% | 1013.2 hPa | 0 mm | - | 207 W/m² | - |
| 1777657332 | 22.22° C | 57% | 1012.9 hPa | 0 mm | - | 290 W/m² | - |
| 1777657030 | 22.22° C | 56% | 1012.9 hPa | 0 mm | - | 326 W/m² | - |
| 1777656727 | 22.22° C | 57% | 1012.9 hPa | 0 mm | - | 569 W/m² | - |
| 1777656422 | 22.78° C | 57% | 1012.9 hPa | 0 mm | - | 504 W/m² | - |
| 1777656117 | 22.22° C | 60% | 1012.9 hPa | 0 mm | - | 392 W/m² | - |
* Rain latest hour (hover to see other rain measurements)
** Current wind speed in m/s (hover to see current wind gust speed)